Time;durP1;ratioP1;P1;durP2;ratioP2;P2;SDS_P1;SDS_P2;PMS_P1;PMS_P2;Temp;Humidity;BMP_temperature;BMP_pressure;BME280_temperature;BME280_humidity;BME280_pressure;Samples;Min_cycle;Max_cycle;Signal;HPM_P1;HPM_P2
2023/09/09 00:01:18;;;;;;;11.70;5.50;;;20.10;99.70;;;;;;5072593;28;20419;-67
2023/09/09 00:03:44;;;;;;;8.48;5.63;;;19.90;99.90;;;;;;5073294;28;20035;-68
2023/09/09 00:06:13;;;;;;;14.13;6.05;;;19.90;99.90;;;;;;5072339;28;20043;-69
2023/09/09 00:08:40;;;;;;;10.55;5.13;;;20.00;99.90;;;;;;5072592;28;20047;-69
2023/09/09 00:11:06;;;;;;;8.20;5.60;;;20.00;99.90;;;;;;5072336;28;20059;-68
2023/09/09 00:13:32;;;;;;;8.88;5.22;;;19.90;99.90;;;;;;5072236;28;20269;-69
2023/09/09 00:15:59;;;;;;;11.68;5.53;;;19.90;99.90;;;;;;5073183;28;20082;-69
2023/09/09 00:18:25;;;;;;;8.02;5.03;;;19.80;99.90;;;;;;5072298;28;20032;-69
2023/09/09 00:20:50;;;;;;;8.77;5.28;;;19.80;99.90;;;;;;5072259;28;20366;-69
2023/09/09 00:23:16;;;;;;;8.27;5.10;;;19.80;99.90;;;;;;5071026;28;20036;-69
2023/09/09 00:25:42;;;;;;;11.05;5.38;;;19.70;99.90;;;;;;5072185;28;20085;-69
2023/09/09 00:28:10;;;;;;;9.25;5.63;;;19.70;99.90;;;;;;5072286;28;20416;-69
2023/09/09 00:30:36;;;;;;;10.23;5.82;;;19.70;99.90;;;;;;5072941;28;20016;-69
2023/09/09 00:33:03;;;;;;;9.98;5.22;;;19.70;99.90;;;;;;5072068;28;20111;-69
2023/09/09 00:35:29;;;;;;;8.25;5.20;;;19.70;99.90;;;;;;5071934;28;20125;-69
2023/09/09 00:37:55;;;;;;;8.20;5.13;;;19.60;99.90;;;;;;5071887;28;20107;-69
2023/09/09 00:40:21;;;;;;;11.02;5.28;;;19.50;99.90;;;;;;5071742;28;20383;-69
2023/09/09 00:42:47;;;;;;;11.05;5.35;;;19.50;99.90;;;;;;5072615;28;20509;-69
2023/09/09 00:45:13;;;;;;;8.23;5.05;;;19.40;99.90;;;;;;5071744;28;20411;-69
2023/09/09 00:47:39;;;;;;;9.15;5.63;;;19.40;99.90;;;;;;5071681;28;20028;-68
2023/09/09 00:50:09;;;;;;;12.80;5.25;;;19.30;99.90;;;;;;5071423;28;20067;-67
2023/09/09 00:52:38;;;;;;;8.07;5.50;;;19.30;99.90;;;;;;5071748;28;20048;-68
2023/09/09 00:55:03;;;;;;;;;;;19.40;99.90;;;;;;5071870;28;20028;-68
2023/09/09 00:57:29;;;;;;;9.35;5.32;;;19.40;99.90;;;;;;5071813;28;19900;-69
2023/09/09 00:59:55;;;;;;;16.30;5.45;;;19.40;99.90;;;;;;5071516;28;20029;-69
2023/09/09 01:02:20;;;;;;;11.90;5.45;;;19.30;99.90;;;;;;5071340;28;20090;-68
2023/09/09 01:04:48;;;;;;;9.50;5.70;;;19.30;99.90;;;;;;5071425;28;20147;-69
2023/09/09 01:07:14;;;;;;;11.68;6.28;;;19.20;99.90;;;;;;5070917;28;20055;-68
2023/09/09 01:09:40;;;;;;;9.88;5.15;;;19.10;99.90;;;;;;5071190;28;20355;-68
2023/09/09 01:12:11;;;;;;;8.55;5.32;;;19.20;99.90;;;;;;5071527;28;20028;-68
2023/09/09 01:14:40;;;;;;;8.45;5.13;;;19.30;99.90;;;;;;5071445;28;20036;-69
2023/09/09 01:17:05;;;;;;;8.27;5.30;;;19.30;99.90;;;;;;5071286;28;20021;-69
2023/09/09 01:19:32;;;;;;;10.75;5.25;;;19.40;99.90;;;;;;5071008;28;20029;-69
2023/09/09 01:22:03;;;;;;;7.82;5.28;;;19.20;99.90;;;;;;5071422;28;20085;-68
2023/09/09 01:24:28;;;;;;;11.30;6.15;;;19.20;99.90;;;;;;5071417;28;20036;-68
2023/09/09 01:26:54;;;;;;;9.73;5.28;;;19.30;99.90;;;;;;5070789;28;20179;-69
2023/09/09 01:29:20;;;;;;;11.38;5.97;;;19.30;99.90;;;;;;5070837;28;20029;-68
2023/09/09 01:31:46;;;;;;;11.82;5.60;;;19.30;99.90;;;;;;5070763;28;20111;-68
2023/09/09 01:34:11;;;;;;;10.77;5.60;;;19.30;99.90;;;;;;5070827;28;20170;-69
2023/09/09 01:36:37;;;;;;;8.40;5.07;;;19.40;99.90;;;;;;5086560;28;20505;-68
2023/09/09 01:39:03;;;;;;;12.02;5.10;;;19.30;99.90;;;;;;5091029;28;20025;-68
2023/09/09 01:41:29;;;;;;;8.35;5.80;;;19.40;99.90;;;;;;5091189;28;20178;-68
2023/09/09 01:43:54;;;;;;;10.60;6.00;;;19.40;99.90;;;;;;5090942;28;20452;-68
2023/09/09 01:46:20;;;;;;;9.85;5.10;;;19.40;99.90;;;;;;5089721;28;20518;-68
2023/09/09 01:48:45;;;;;;;11.65;5.60;;;19.40;99.90;;;;;;5091260;28;20160;-68
2023/09/09 01:51:11;;;;;;;8.23;5.72;;;19.30;99.90;;;;;;5090798;28;20028;-68
2023/09/09 01:53:38;;;;;;;8.85;5.70;;;19.40;99.90;;;;;;5090852;28;20363;-68
2023/09/09 01:56:04;;;;;;;9.10;5.40;;;19.30;99.90;;;;;;5090901;28;20025;-68
2023/09/09 01:58:29;;;;;;;10.43;5.60;;;19.20;99.90;;;;;;5090801;28;20383;-67
2023/09/09 02:00:55;;;;;;;9.23;4.93;;;19.20;99.90;;;;;;5091173;28;20042;-68
2023/09/09 02:03:21;;;;;;;13.57;5.80;;;19.20;99.90;;;;;;5090796;28;20111;-68
2023/09/09 02:05:47;;;;;;;8.43;5.13;;;19.10;99.90;;;;;;5090807;28;20032;-68
2023/09/09 02:08:13;;;;;;;10.30;5.70;;;19.00;99.90;;;;;;5090818;28;20143;-68
2023/09/09 02:10:40;;;;;;;8.70;5.28;;;19.00;99.90;;;;;;5090521;28;20051;-68
2023/09/09 02:13:05;;;;;;;9.85;5.65;;;19.10;99.90;;;;;;5091113;28;20024;-68
2023/09/09 02:15:31;;;;;;;7.13;5.20;;;19.00;99.90;;;;;;5091214;28;20046;-67
2023/09/09 02:17:57;;;;;;;9.38;5.13;;;19.00;99.90;;;;;;5090616;28;20032;-68
2023/09/09 02:20:23;;;;;;;6.25;4.70;;;18.90;99.90;;;;;;5090683;28;20039;-68
2023/09/09 02:22:49;;;;;;;8.25;5.20;;;18.80;99.90;;;;;;5093110;28;20024;-68
2023/09/09 02:25:14;;;;;;;8.75;5.18;;;18.90;99.90;;;;;;5093685;28;20028;-68
2023/09/09 02:27:40;;;;;;;9.40;5.00;;;18.70;99.90;;;;;;5095190;28;20016;-69
2023/09/09 02:30:07;;;;;;;7.40;4.85;;;18.80;99.90;;;;;;5094560;28;20438;-68
2023/09/09 02:32:33;;;;;;;8.07;5.10;;;18.70;99.90;;;;;;5094613;28;20107;-68
2023/09/09 02:34:59;;;;;;;8.18;5.40;;;18.70;99.90;;;;;;5093438;28;20115;-68
2023/09/09 02:37:26;;;;;;;10.93;6.18;;;18.70;99.90;;;;;;5094775;28;20024;-69
2023/09/09 02:39:52;;;;;;;7.90;5.65;;;18.70;99.90;;;;;;5094761;28;20465;-69
2023/09/09 02:42:19;;;;;;;15.48;6.07;;;18.70;99.90;;;;;;5094672;28;20094;-69
2023/09/09 02:44:46;;;;;;;13.15;5.90;;;18.80;99.90;;;;;;5094629;28;20142;-69
2023/09/09 02:47:12;;;;;;;11.85;5.43;;;18.70;99.90;;;;;;5094548;28;20043;-69
2023/09/09 02:49:39;;;;;;;12.13;5.35;;;18.70;99.90;;;;;;5094292;28;20052;-68
2023/09/09 02:52:06;;;;;;;10.20;5.97;;;18.80;99.90;;;;;;5092900;28;20024;-68
2023/09/09 02:54:35;;;;;;;10.32;5.93;;;18.70;99.90;;;;;;5094467;28;20028;-69
2023/09/09 02:57:03;;;;;;;8.50;5.45;;;18.80;99.90;;;;;;5094127;28;20028;-68
2023/09/09 02:59:31;;;;;;;11.02;5.88;;;18.80;99.90;;;;;;5094042;28;20036;-68
2023/09/09 03:01:56;;;;;;;11.82;5.95;;;18.80;99.90;;;;;;5094129;28;20028;-69
2023/09/09 03:04:22;;;;;;;13.02;5.88;;;18.90;99.90;;;;;;5093809;28;20119;-69
2023/09/09 03:06:47;;;;;;;12.10;5.15;;;18.90;99.90;;;;;;5093892;28;20048;-68
2023/09/09 03:09:14;;;;;;;10.77;5.57;;;18.90;99.90;;;;;;5093849;28;20047;-70
2023/09/09 03:11:40;;;;;;;11.95;6.13;;;18.90;99.90;;;;;;5092425;28;20074;-69
2023/09/09 03:14:06;;;;;;;7.38;5.53;;;18.90;99.90;;;;;;5093636;28;20056;-68
2023/09/09 03:16:32;;;;;;;10.15;5.93;;;18.90;99.90;;;;;;5093962;28;20467;-69
2023/09/09 03:18:57;;;;;;;11.73;5.18;;;18.80;99.90;;;;;;5094070;28;20028;-70
2023/09/09 03:21:23;;;;;;;7.82;5.35;;;18.90;99.90;;;;;;5093745;28;20032;-69
2023/09/09 03:23:49;;;;;;;10.82;5.43;;;18.80;99.90;;;;;;5093425;28;20035;-68
2023/09/09 03:26:19;;;;;;;10.07;5.43;;;18.90;99.90;;;;;;5093563;28;20101;-69
2023/09/09 03:28:48;;;;;;;9.40;5.43;;;18.90;99.90;;;;;;5093502;28;20071;-69
2023/09/09 03:31:13;;;;;;;9.18;5.70;;;18.90;99.90;;;;;;5093151;28;20114;-69
2023/09/09 03:33:40;;;;;;;8.98;5.80;;;18.90;99.90;;;;;;5093543;28;20020;-68
2023/09/09 03:36:06;;;;;;;8.20;5.30;;;18.90;99.90;;;;;;5093243;28;20042;-68
2023/09/09 03:38:32;;;;;;;8.13;5.28;;;18.90;99.90;;;;;;5093136;28;20035;-69
2023/09/09 03:40:58;;;;;;;8.38;5.53;;;19.00;99.90;;;;;;5093353;28;20379;-69
2023/09/09 03:43:23;;;;;;;13.43;6.30;;;19.00;99.90;;;;;;5092003;28;20165;-69
2023/09/09 03:45:56;;;;;;;8.70;5.13;;;19.00;99.90;;;;;;5092496;28;20417;-69
2023/09/09 03:48:22;;;;;;;15.15;5.80;;;19.00;99.90;;;;;;5092353;28;20043;-69
2023/09/09 03:50:48;;;;;;;9.40;5.18;;;19.00;99.90;;;;;;5091843;28;20443;-68
2023/09/09 03:53:14;;;;;;;11.70;5.20;;;19.00;99.90;;;;;;5093071;28;20107;-69
2023/09/09 03:55:39;;;;;;;10.10;5.90;;;19.00;99.90;;;;;;5092952;28;20051;-69
2023/09/09 03:58:05;;;;;;;14.05;6.18;;;19.10;99.90;;;;;;5092852;28;20099;-69
2023/09/09 04:00:31;;;;;;;8.20;5.85;;;19.00;99.90;;;;;;5093297;28;20300;-69
2023/09/09 04:02:56;;;;;;;9.02;5.10;;;19.10;99.90;;;;;;5092660;28;20085;-69
2023/09/09 04:05:23;;;;;;;10.93;4.82;;;19.10;99.90;;;;;;5092857;28;20047;-69
2023/09/09 04:07:48;;;;;;;6.63;4.93;;;19.10;99.90;;;;;;5092500;28;20043;-69
2023/09/09 04:10:14;;;;;;;7.57;5.45;;;19.00;99.90;;;;;;5092460;28;20032;-69
2023/09/09 04:12:40;;;;;;;7.00;5.07;;;19.00;99.90;;;;;;5093374;28;20016;-69
2023/09/09 04:15:06;;;;;;;7.68;4.90;;;19.00;99.90;;;;;;5092559;28;20060;-69
2023/09/09 04:17:32;;;;;;;10.38;5.38;;;18.90;99.90;;;;;;5092626;28;20059;-69
2023/09/09 04:19:58;;;;;;;8.18;5.18;;;18.90;99.90;;;;;;5092458;28;20431;-69
2023/09/09 04:22:25;;;;;;;8.07;5.45;;;18.90;99.90;;;;;;5092276;28;20042;-69
2023/09/09 04:24:53;;;;;;;8.95;5.28;;;19.00;99.90;;;;;;5092865;28;20055;-69
2023/09/09 04:27:19;;;;;;;10.25;5.53;;;19.00;99.90;;;;;;5092289;28;20024;-69
2023/09/09 04:29:45;;;;;;;10.85;6.28;;;19.00;99.90;;;;;;5092305;28;20028;-68
2023/09/09 04:32:12;;;;;;;11.10;5.93;;;18.90;99.90;;;;;;5092190;28;20481;-68
2023/09/09 04:34:38;;;;;;;10.68;5.85;;;18.90;99.90;;;;;;5092041;28;20042;-68
2023/09/09 04:37:04;;;;;;;10.60;6.03;;;18.90;99.90;;;;;;5092131;28;20024;-67
2023/09/09 04:39:30;;;;;;;12.13;5.78;;;18.90;99.90;;;;;;5092326;28;20454;-68
2023/09/09 04:41:55;;;;;;;9.20;5.85;;;18.90;99.90;;;;;;5092199;28;20345;-68
2023/09/09 04:44:21;;;;;;;10.70;5.68;;;18.90;99.90;;;;;;5091375;28;20028;-70
2023/09/09 04:46:47;;;;;;;10.73;5.50;;;18.90;99.90;;;;;;5091781;28;20036;-69
2023/09/09 04:49:12;;;;;;;7.93;5.60;;;18.90;99.90;;;;;;5091894;28;20027;-69
2023/09/09 04:51:38;;;;;;;8.95;5.32;;;18.90;99.90;;;;;;5091077;28;20039;-69
2023/09/09 04:54:04;;;;;;;6.65;4.93;;;18.90;99.90;;;;;;5091835;28;20032;-69
2023/09/09 04:56:33;;;;;;;10.20;6.45;;;18.90;99.90;;;;;;5091803;28;20028;-69
2023/09/09 04:58:58;;;;;;;9.40;6.10;;;18.90;99.90;;;;;;5090669;28;20032;-68
2023/09/09 05:01:24;;;;;;;8.88;6.40;;;18.90;99.90;;;;;;5091633;28;20016;-68
2023/09/09 05:03:49;;;;;;;9.60;5.35;;;18.90;99.90;;;;;;5092294;28;20105;-68
2023/09/09 05:06:15;;;;;;;7.55;5.38;;;18.80;99.90;;;;;;5091445;28;20454;-68
2023/09/09 05:08:40;;;;;;;7.78;5.20;;;18.80;99.90;;;;;;5091551;28;20127;-68
2023/09/09 05:11:06;;;;;;;8.50;5.55;;;18.80;99.90;;;;;;5091408;28;20402;-69
2023/09/09 05:13:32;;;;;;;11.20;5.97;;;18.80;99.90;;;;;;5091599;28;20051;-69
2023/09/09 05:15:57;;;;;;;13.18;5.63;;;18.80;99.90;;;;;;5091875;28;20039;-69
2023/09/09 05:18:23;;;;;;;7.78;5.32;;;18.80;99.90;;;;;;5091463;28;20551;-69
2023/09/09 05:20:49;;;;;;;8.57;5.68;;;18.90;99.90;;;;;;5091268;28;20024;-69
2023/09/09 05:23:14;;;;;;;9.10;5.40;;;18.80;99.90;;;;;;5091157;28;20032;-69
2023/09/09 05:25:40;;;;;;;8.60;5.38;;;18.80;99.90;;;;;;5091331;28;20024;-69
2023/09/09 05:28:05;;;;;;;14.18;5.72;;;18.80;99.90;;;;;;5091193;28;20032;-69
2023/09/09 05:30:31;;;;;;;8.10;5.38;;;18.90;99.90;;;;;;5091609;28;20349;-69
2023/09/09 05:32:57;;;;;;;8.40;5.18;;;18.90;99.90;;;;;;5091225;28;20036;-68
2023/09/09 05:35:22;;;;;;;8.70;5.47;;;18.90;99.90;;;;;;5089851;28;20442;-68
2023/09/09 05:37:48;;;;;;;13.00;6.07;;;18.90;99.90;;;;;;5089890;28;20147;-67
2023/09/09 05:40:13;;;;;;;10.25;5.80;;;18.90;99.90;;;;;;5090960;28;20035;-68
2023/09/09 05:42:39;;;;;;;9.68;5.50;;;18.90;99.90;;;;;;5091320;28;20063;-68
2023/09/09 05:45:08;;;;;;;8.60;5.35;;;18.90;99.90;;;;;;5091012;28;20036;-68
2023/09/09 05:47:35;;;;;;;8.90;6.00;;;18.90;99.90;;;;;;5090779;28;20024;-67
2023/09/09 05:50:01;;;;;;;7.72;5.10;;;19.00;99.90;;;;;;5091151;28;20413;-67
2023/09/09 05:52:26;;;;;;;13.23;5.80;;;19.00;99.90;;;;;;5090650;28;20139;-68
2023/09/09 05:54:52;;;;;;;10.65;5.13;;;19.00;99.90;;;;;;5091175;28;20070;-68
2023/09/09 05:57:18;;;;;;;7.20;4.72;;;19.00;99.90;;;;;;5090844;28;20051;-68
2023/09/09 05:59:43;;;;;;;9.82;5.00;;;19.10;99.90;;;;;;5090986;28;20074;-70
2023/09/09 06:02:09;;;;;;;8.70;5.32;;;19.10;99.90;;;;;;5090863;28;20059;-69
2023/09/09 06:04:34;;;;;;;10.27;5.43;;;19.10;99.90;;;;;;5090706;28;20446;-69
2023/09/09 06:07:00;;;;;;;8.85;5.20;;;19.10;99.90;;;;;;5090913;28;20044;-71
2023/09/09 06:09:26;;;;;;;23.52;13.07;;;19.20;99.90;;;;;;5090762;28;20519;-70
2023/09/09 06:11:52;;;;;;;15.05;9.07;;;19.20;99.90;;;;;;5090474;28;20036;-71
2023/09/09 06:14:17;;;;;;;16.40;9.70;;;19.20;99.90;;;;;;5090611;28;20475;-70
2023/09/09 06:16:43;;;;;;;17.75;9.80;;;19.30;99.90;;;;;;5089376;28;20418;-69
2023/09/09 06:19:08;;;;;;;15.70;7.88;;;19.30;99.90;;;;;;5090448;28;20033;-70
2023/09/09 06:21:34;;;;;;;17.08;10.07;;;19.40;99.90;;;;;;5091032;28;20555;-68
2023/09/09 06:24:00;;;;;;;13.80;6.32;;;19.40;99.90;;;;;;5089265;28;20028;-71
2023/09/09 06:26:31;;;;;;;11.13;5.60;;;19.40;99.90;;;;;;5090663;28;20036;-69
2023/09/09 06:28:57;;;;;;;7.40;5.15;;;19.50;99.90;;;;;;5090435;28;20133;-70
2023/09/09 06:31:23;;;;;;;8.93;5.88;;;19.50;99.90;;;;;;5090266;28;20482;-71
2023/09/09 06:33:49;;;;;;;8.90;5.35;;;19.60;99.90;;;;;;5090898;28;20035;-69
2023/09/09 06:36:16;;;;;;;10.20;5.93;;;19.60;99.90;;;;;;5090445;28;20166;-70
2023/09/09 06:38:42;;;;;;;10.27;5.83;;;19.60;99.90;;;;;;5090569;28;20129;-70
2023/09/09 06:41:07;;;;;;;9.93;5.20;;;19.70;99.90;;;;;;5090493;28;20459;-68
2023/09/09 06:43:33;;;;;;;10.07;5.10;;;19.80;99.90;;;;;;5090335;28;20458;-69
2023/09/09 06:46:00;;;;;;;8.82;4.60;;;19.80;99.90;;;;;;5089724;28;20024;-69
2023/09/09 06:48:25;;;;;;;8.70;5.30;;;19.90;99.90;;;;;;5090219;28;20036;-69
2023/09/09 06:50:51;;;;;;;18.02;9.25;;;19.90;99.80;;;;;;5090241;28;20024;-68
2023/09/09 06:53:17;;;;;;;16.20;8.75;;;20.00;99.90;;;;;;5090176;28;20028;-68
2023/09/09 06:55:47;;;;;;;8.25;6.00;;;20.10;99.90;;;;;;5090687;28;20092;-68
2023/09/09 06:58:13;;;;;;;11.77;7.10;;;20.10;99.90;;;;;;5090268;28;20031;-68
2023/09/09 07:00:38;;;;;;;9.30;5.93;;;20.10;99.90;;;;;;5090572;28;20032;-69
2023/09/09 07:03:05;;;;;;;10.80;5.03;;;20.20;99.90;;;;;;5088975;28;20415;-68
2023/09/09 07:05:34;;;;;;;8.48;4.82;;;20.30;99.90;;;;;;5088969;28;20032;-67
2023/09/09 07:08:00;;;;;;;12.43;5.60;;;20.30;99.90;;;;;;5091244;28;20378;-70
2023/09/09 07:10:26;;;;;;;8.63;5.07;;;20.40;99.90;;;;;;5093702;28;20032;-69
2023/09/09 07:12:52;;;;;;;11.88;5.53;;;20.50;99.90;;;;;;5094186;28;20038;-68
2023/09/09 07:15:18;;;;;;;13.00;4.95;;;20.50;99.90;;;;;;5093816;28;20032;-69
2023/09/09 07:17:46;;;;;;;11.98;6.63;;;20.60;99.80;;;;;;5093828;28;20028;-70
2023/09/09 07:20:12;;;;;;;;;;;20.70;99.70;;;;;;5094106;28;20032;-70
2023/09/09 07:22:38;;;;;;;6.85;4.75;;;20.70;99.70;;;;;;5093579;28;19977;-69
2023/09/09 07:25:05;;;;;;;7.50;5.00;;;20.80;99.40;;;;;;5089124;28;20024;-69
2023/09/09 07:27:30;;;;;;;7.95;4.45;;;20.80;99.40;;;;;;5093018;28;20016;-68
2023/09/09 07:29:56;;;;;;;6.53;4.43;;;21.00;99.50;;;;;;5093711;28;20032;-69
2023/09/09 07:32:21;;;;;;;7.32;4.28;;;21.00;99.70;;;;;;5093641;28;20112;-69
2023/09/09 07:34:48;;;;;;;11.05;4.90;;;21.10;99.70;;;;;;5093744;28;20036;-68
2023/09/09 07:37:13;;;;;;;12.38;5.00;;;21.20;99.50;;;;;;5093383;28;20062;-68
2023/09/09 07:39:50;;;;;;;17.42;10.02;;;21.30;99.40;;;;;;5092650;28;20104;-67
2023/09/09 07:42:16;;;;;;;12.02;7.13;;;21.40;99.40;;;;;;5093554;28;20169;-66
2023/09/09 07:44:42;;;;;;;7.45;4.78;;;21.50;99.50;;;;;;5092361;28;20119;-65
2023/09/09 07:47:08;;;;;;;8.60;5.20;;;21.50;99.40;;;;;;5093313;28;20029;-67
2023/09/09 07:49:34;;;;;;;10.90;5.80;;;21.60;99.20;;;;;;5093526;28;20047;-67
2023/09/09 07:52:02;;;;;;;9.27;5.43;;;21.70;99.10;;;;;;5093639;28;20024;-68
2023/09/09 07:54:28;;;;;;;9.73;4.57;;;21.80;99.00;;;;;;5092991;28;20028;-68
2023/09/09 07:56:55;;;;;;;7.70;4.88;;;21.80;98.90;;;;;;5093204;28;20474;-68
2023/09/09 07:59:20;;;;;;;9.95;4.22;;;21.90;98.90;;;;;;5093287;28;20431;-68
2023/09/09 08:01:47;;;;;;;8.77;5.30;;;22.00;98.80;;;;;;5093227;28;20037;-67
2023/09/09 08:04:12;;;;;;;8.27;4.55;;;22.10;98.90;;;;;;5093031;28;20027;-68
2023/09/09 08:06:38;;;;;;;6.72;5.15;;;22.20;98.80;;;;;;5093416;28;20052;-68
2023/09/09 08:09:03;;;;;;;9.07;5.05;;;22.30;98.90;;;;;;5092766;28;20063;-70
2023/09/09 08:11:29;;;;;;;6.88;4.15;;;22.30;98.80;;;;;;5092929;28;20055;-69
2023/09/09 08:13:55;;;;;;;5.22;4.15;;;22.50;98.70;;;;;;5092864;28;20438;-68
2023/09/09 08:16:20;;;;;;;10.48;4.70;;;22.60;98.70;;;;;;5092749;28;20028;-69
2023/09/09 08:18:46;;;;;;;7.15;4.32;;;22.80;98.50;;;;;;5092349;28;20039;-70
2023/09/09 08:21:12;;;;;;;9.95;4.65;;;22.90;98.50;;;;;;5092472;28;20089;-70
2023/09/09 08:23:39;;;;;;;10.93;4.93;;;23.40;98.10;;;;;;5092285;28;20040;-70
2023/09/09 08:26:05;;;;;;;5.20;3.95;;;23.80;97.50;;;;;;5092607;28;20044;-72
2023/09/09 08:28:30;;;;;;;4.85;3.95;;;24.60;96.60;;;;;;5092654;28;20024;-70
2023/09/09 08:31:00;;;;;;;6.20;4.40;;;25.60;95.60;;;;;;5092766;28;20493;-71
2023/09/09 08:33:26;;;;;;;5.18;4.25;;;26.50;94.50;;;;;;5091587;28;20047;-72
2023/09/09 08:36:05;;;;;;;7.65;4.25;;;27.20;93.40;;;;;;5092513;28;20028;-72
2023/09/09 08:38:31;;;;;;;6.63;4.32;;;28.40;92.10;;;;;;5092234;28;20478;-70
2023/09/09 08:41:09;;;;;;;7.60;4.18;;;29.80;91.50;;;;;;5092480;28;20097;-70
2023/09/09 08:43:58;;;;;;;6.68;4.00;;;31.10;85.30;;;;;;5092195;28;20525;-71
2023/09/09 08:46:23;;;;;;;6.22;3.70;;;31.70;83.60;;;;;;5091901;28;20032;-72
2023/09/09 08:48:50;;;;;;;4.97;3.45;;;32.90;81.80;;;;;;5092279;28;20047;-71
2023/09/09 08:51:19;;;;;;;13.02;8.43;;;34.10;79.60;;;;;;5091748;28;20097;-70
2023/09/09 08:53:45;;;;;;;6.85;5.60;;;34.80;74.60;;;;;;5091741;28;20075;-72
2023/09/09 08:56:15;;;;;;;7.70;4.82;;;35.20;72.60;;;;;;5091874;28;20032;-70
2023/09/09 08:58:41;;;;;;;5.72;4.43;;;35.80;67.30;;;;;;5091540;28;20480;-72
2023/09/09 09:01:07;;;;;;;13.10;4.82;;;36.10;66.40;;;;;;5091509;28;20040;-71
2023/09/09 09:03:33;;;;;;;7.93;4.28;;;37.20;64.20;;;;;;5091715;28;20020;-73
2023/09/09 09:06:04;;;;;;;6.40;4.15;;;36.20;62.00;;;;;;5091476;28;20093;-72
2023/09/09 09:08:33;;;;;;;6.93;3.60;;;37.10;62.00;;;;;;5091680;28;20048;-75
2023/09/09 09:11:02;;;;;;;12.60;4.30;;;38.30;59.50;;;;;;5091333;28;20047;-72
2023/09/09 09:13:31;;;;;;;4.32;3.50;;;38.40;57.40;;;;;;5091344;28;20327;-71
2023/09/09 09:15:59;;;;;;;6.00;3.70;;;38.70;56.50;;;;;;5091769;28;20373;-71
2023/09/09 09:18:25;;;;;;;5.95;3.50;;;38.80;56.20;;;;;;5090374;28;20129;-71
2023/09/09 09:20:52;;;;;;;6.43;4.13;;;39.80;56.30;;;;;;5091311;28;20346;-75
2023/09/09 09:23:18;;;;;;;5.47;4.18;;;39.30;53.70;;;;;;5090125;28;20035;-76
2023/09/09 09:25:46;;;;;;;6.57;4.05;;;39.50;52.40;;;;;;5091511;28;20028;-74
2023/09/09 09:28:13;;;;;;;5.03;3.90;;;39.30;52.00;;;;;;5091407;28;20055;-73
2023/09/09 09:30:42;;;;;;;9.30;3.50;;;39.00;52.60;;;;;;5091300;28;20028;-75
2023/09/09 09:33:08;;;;;;;5.72;3.47;;;39.50;51.60;;;;;;5090212;28;20031;-75
2023/09/09 09:35:36;;;;;;;14.20;3.97;;;40.00;51.20;;;;;;5091009;28;20128;-74
2023/09/09 09:38:09;;;;;;;6.93;3.60;;;40.20;51.10;;;;;;5090984;28;20028;-74
2023/09/09 09:40:36;;;;;;;16.15;3.80;;;40.20;49.20;;;;;;5091155;28;20058;-72
2023/09/09 09:43:02;;;;;;;4.20;3.80;;;39.50;49.40;;;;;;5091232;28;20564;-70
2023/09/09 09:45:29;;;;;;;6.75;3.95;;;40.40;50.50;;;;;;5091322;28;20527;-70
2023/09/09 09:47:56;;;;;;;5.45;4.00;;;41.20;48.40;;;;;;5091044;28;20024;-71
2023/09/09 09:50:28;;;;;;;;;;;40.50;48.20;;;;;;5091211;28;20054;-73
2023/09/09 09:53:05;;;;;;;5.82;3.85;;;40.70;48.10;;;;;;5091038;28;19915;-72
2023/09/09 09:55:33;;;;;;;5.20;3.55;;;40.20;48.10;;;;;;5090901;28;20109;-72
2023/09/09 09:58:00;;;;;;;4.53;3.47;;;40.90;47.60;;;;;;5091262;28;20024;-72
2023/09/09 10:00:27;;;;;;;4.60;3.90;;;41.60;47.60;;;;;;5090885;28;20032;-71
2023/09/09 10:02:54;;;;;;;4.80;3.53;;;42.40;45.90;;;;;;5090848;28;20466;-71
2023/09/09 10:05:22;;;;;;;4.93;3.67;;;41.80;45.50;;;;;;5090798;28;20040;-71
2023/09/09 10:08:12;;;;;;;6.32;3.33;;;42.20;46.10;;;;;;5090467;28;20060;-72
2023/09/09 10:10:44;;;;;;;5.47;3.55;;;41.70;44.80;;;;;;5090807;28;20055;-70
2023/09/09 10:13:18;;;;;;;4.28;3.67;;;41.90;44.40;;;;;;5089627;28;20028;-71
2023/09/09 10:15:47;;;;;;;6.32;3.53;;;42.30;45.90;;;;;;5091158;28;20028;-70
2023/09/09 10:18:14;;;;;;;6.68;4.05;;;42.10;44.30;;;;;;5090656;28;20036;-70
2023/09/09 10:20:41;;;;;;;8.70;3.90;;;42.70;44.60;;;;;;5090324;28;20024;-71
2023/09/09 10:23:08;;;;;;;4.70;3.30;;;42.90;43.80;;;;;;5090469;28;20059;-70
2023/09/09 10:25:34;;;;;;;9.15;4.43;;;43.00;42.80;;;;;;5089499;28;20039;-72
2023/09/09 10:28:00;;;;;;;4.30;3.80;;;43.00;42.80;;;;;;5089743;28;20432;-70
2023/09/09 10:30:30;;;;;;;6.77;3.83;;;43.50;41.90;;;;;;5090536;28;20064;-71
2023/09/09 10:32:58;;;;;;;8.98;3.22;;;42.70;42.00;;;;;;5090483;28;20024;-71
2023/09/09 10:35:24;;;;;;;4.97;3.35;;;43.10;42.30;;;;;;5090504;28;20119;-70
2023/09/09 10:37:51;;;;;;;4.93;3.53;;;42.90;41.20;;;;;;5090404;28;20120;-70
2023/09/09 10:40:17;;;;;;;4.10;3.13;;;43.40;40.80;;;;;;5090127;28;20028;-71
2023/09/09 10:42:44;;;;;;;6.70;3.65;;;42.80;40.50;;;;;;5091491;28;20445;-71
2023/09/09 10:45:29;;;;;;;;;;;42.80;40.30;;;;;;5094677;28;20032;-71
2023/09/09 10:48:02;;;;;;;5.25;3.38;;;42.40;40.60;;;;;;5094177;28;19969;-72
2023/09/09 10:50:41;;;;;;;7.03;3.70;;;43.20;40.70;;;;;;5076682;28;20189;-70
2023/09/09 10:53:17;;;;;;;6.25;3.38;;;42.20;39.90;;;;;;5074510;28;20432;-71
2023/09/09 10:55:43;;;;;;;5.85;3.42;;;42.50;39.70;;;;;;5074228;28;20032;-72
2023/09/09 10:58:09;;;;;;;4.13;3.63;;;41.20;41.90;;;;;;5074405;28;20028;-70
2023/09/09 11:00:40;;;;;;;4.57;3.50;;;42.70;40.70;;;;;;5074653;28;20512;-70
2023/09/09 11:03:22;;;;;;;6.80;3.30;;;42.60;39.70;;;;;;5073999;28;20516;-70
2023/09/09 11:05:58;;;;;;;6.55;3.53;;;42.30;39.60;;;;;;5073673;28;20125;-70
2023/09/09 11:08:35;;;;;;;7.20;3.13;;;41.60;38.90;;;;;;5073870;28;20037;-72
2023/09/09 11:11:16;;;;;;;4.07;3.17;;;41.70;39.70;;;;;;5073763;28;20055;-70
2023/09/09 11:14:03;;;;;;;5.53;3.05;;;40.90;40.20;;;;;;5073770;28;20048;-72
2023/09/09 11:16:35;;;;;;;7.25;3.83;;;41.00;39.80;;;;;;5073047;28;20024;-71
2023/09/09 11:19:12;;;;;;;8.32;3.67;;;40.90;40.60;;;;;;5074130;28;20036;-72
2023/09/09 11:21:43;;;;;;;7.88;3.10;;;40.50;40.40;;;;;;5074259;28;20036;-71
2023/09/09 11:24:10;;;;;;;4.60;4.18;;;40.20;38.60;;;;;;5073697;28;20033;-69
2023/09/09 11:26:44;;;;;;;3.83;3.17;;;40.40;38.00;;;;;;5073589;28;20028;-72
2023/09/09 11:29:10;;;;;;;3.30;3.00;;;40.00;38.20;;;;;;5073660;28;20408;-71
2023/09/09 11:31:36;;;;;;;7.13;3.05;;;39.00;39.00;;;;;;5073569;28;20047;-70
2023/09/09 11:34:03;;;;;;;3.83;3.15;;;38.20;38.70;;;;;;5073580;28;20032;-70
2023/09/09 11:36:29;;;;;;;4.25;3.20;;;37.60;39.80;;;;;;5073974;28;20043;-69
2023/09/09 11:39:00;;;;;;;5.38;3.47;;;37.20;39.90;;;;;;5073428;28;20273;-70
2023/09/09 11:41:30;;;;;;;7.85;3.38;;;37.00;39.80;;;;;;5072459;28;20040;-69
2023/09/09 11:44:00;;;;;;;4.20;3.40;;;36.60;40.60;;;;;;5073192;28;20036;-70
2023/09/09 11:46:28;;;;;;;10.15;3.75;;;36.10;41.50;;;;;;5073498;28;20025;-69
2023/09/09 11:48:53;;;;;;;;;;;35.30;41.70;;;;;;5073755;28;20078;-70
2023/09/09 11:51:20;;;;;;;5.90;3.67;;;35.00;41.50;;;;;;5073154;28;19920;-69
2023/09/09 11:53:47;;;;;;;4.20;3.13;;;34.80;42.20;;;;;;5072916;28;20131;-69
2023/09/09 11:56:14;;;;;;;5.10;2.70;;;34.60;41.00;;;;;;5073252;28;20120;-68
2023/09/09 11:58:43;;;;;;;;;;;34.20;41.40;;;;;;5073748;28;20029;-69
2023/09/09 12:01:10;;;;;;;4.05;3.22;;;34.00;43.70;;;;;;5072007;28;20516;-69
2023/09/09 12:03:36;;;;;;;5.53;3.17;;;34.10;44.60;;;;;;5072996;28;20036;-67
2023/09/09 12:06:03;;;;;;;3.97;3.45;;;33.80;44.60;;;;;;5072707;28;20055;-69
2023/09/09 12:08:30;;;;;;;7.70;3.40;;;33.90;44.50;;;;;;5072955;28;20500;-69
2023/09/09 12:10:57;;;;;;;5.28;3.30;;;33.80;44.80;;;;;;5071276;28;20033;-70
2023/09/09 12:13:23;;;;;;;4.88;3.47;;;33.80;44.40;;;;;;5072339;28;20040;-71
2023/09/09 12:15:49;;;;;;;4.00;2.92;;;33.80;44.10;;;;;;5072696;28;20082;-69
2023/09/09 12:18:15;;;;;;;6.32;3.35;;;33.70;43.00;;;;;;5072316;28;20112;-70
2023/09/09 12:21:07;;;;;;;5.22;2.80;;;33.50;42.30;;;;;;5072194;28;20024;-70
2023/09/09 12:23:37;;;;;;;5.20;2.97;;;33.40;42.00;;;;;;5072340;28;20111;-69
2023/09/09 12:26:17;;;;;;;7.38;3.38;;;33.20;42.00;;;;;;5072091;28;20033;-70
2023/09/09 12:28:45;;;;;;;4.82;3.28;;;32.90;43.20;;;;;;5072222;28;20516;-68
2023/09/09 12:31:11;;;;;;;7.50;3.25;;;32.90;43.30;;;;;;5071806;28;20040;-70
2023/09/09 12:33:39;;;;;;;5.55;3.70;;;32.90;44.40;;;;;;5072350;28;20029;-70
2023/09/09 12:36:13;;;;;;;9.05;3.47;;;32.90;44.50;;;;;;5070819;28;20028;-69
2023/09/09 12:38:39;;;;;;;4.50;3.20;;;33.00;45.20;;;;;;5071964;28;20414;-70
2023/09/09 12:41:07;;;;;;;4.63;2.97;;;32.80;45.20;;;;;;5071896;28;20056;-69
2023/09/09 12:43:32;;;;;;;3.83;2.95;;;32.80;44.40;;;;;;5071852;28;20458;-70
2023/09/09 12:46:08;;;;;;;6.60;3.10;;;32.60;43.80;;;;;;5072138;28;20302;-68